Time;durP1;ratioP1;P1;durP2;ratioP2;P2;SDS_P1;SDS_P2;PMS_P1;PMS_P2;Temp;Humidity;BMP_temperature;BMP_pressure;BME280_temperature;BME280_humidity;BME280_pressure;Samples;Min_cycle;Max_cycle;Signal;HPM_P1;HPM_P2
2022/07/05 00:01:42;;;;;;;9.50;4.05;;;17.80;99.90;;;;;;5055019;28;20445;-73
2022/07/05 00:04:08;;;;;;;5.47;3.70;;;17.70;99.90;;;;;;5054971;28;20476;-73
2022/07/05 00:06:34;;;;;;;3.75;3.40;;;17.60;99.90;;;;;;5054913;28;20484;-73
2022/07/05 00:08:59;;;;;;;3.97;3.42;;;17.60;99.90;;;;;;5054619;28;20032;-73
2022/07/05 00:11:25;;;;;;;6.05;3.53;;;17.60;99.90;;;;;;5054891;28;20052;-73
2022/07/05 00:13:51;;;;;;;3.80;3.40;;;17.60;99.90;;;;;;5054789;28;20017;-73
2022/07/05 00:16:16;;;;;;;4.10;3.70;;;17.60;99.90;;;;;;5053091;28;20037;-73
2022/07/05 00:18:42;;;;;;;3.80;3.50;;;17.50;99.90;;;;;;5053395;28;20029;-73
2022/07/05 00:21:08;;;;;;;4.50;3.80;;;17.50;99.90;;;;;;5054358;28;20027;-73
2022/07/05 00:23:34;;;;;;;5.40;4.10;;;17.50;99.90;;;;;;5054572;28;20075;-73
2022/07/05 00:25:59;;;;;;;6.03;5.30;;;17.50;99.90;;;;;;5054248;28;20025;-73
2022/07/05 00:28:25;;;;;;;9.55;5.78;;;17.50;99.90;;;;;;5054499;28;20025;-73
2022/07/05 00:30:51;;;;;;;14.02;6.45;;;17.50;99.90;;;;;;5054505;28;20032;-73
2022/07/05 00:33:16;;;;;;;9.55;6.22;;;17.60;99.90;;;;;;5054837;28;20469;-73
2022/07/05 00:35:42;;;;;;;5.78;5.18;;;17.60;99.90;;;;;;5053240;28;20037;-73
2022/07/05 00:38:08;;;;;;;7.18;5.45;;;17.60;99.90;;;;;;5054368;28;20036;-73
2022/07/05 00:40:33;;;;;;;6.00;5.40;;;17.50;99.90;;;;;;5054583;28;20082;-73
2022/07/05 00:42:59;;;;;;;11.20;5.65;;;17.50;99.90;;;;;;5054410;28;20453;-73
2022/07/05 00:45:25;;;;;;;6.88;6.00;;;17.50;99.90;;;;;;5054265;28;20106;-73
2022/07/05 00:47:50;;;;;;;7.68;5.75;;;17.50;99.90;;;;;;5054207;28;20574;-73
2022/07/05 00:50:16;;;;;;;6.53;5.38;;;17.60;99.90;;;;;;5053128;28;20052;-73
2022/07/05 00:52:41;;;;;;;4.97;4.47;;;17.60;99.90;;;;;;5053824;28;20036;-72
2022/07/05 00:55:08;;;;;;;5.60;5.10;;;17.50;99.90;;;;;;5052657;28;20029;-73
2022/07/05 00:57:34;;;;;;;5.82;5.32;;;17.50;99.90;;;;;;5052367;28;20045;-73
2022/07/05 01:00:00;;;;;;;6.03;5.53;;;17.50;99.90;;;;;;5053735;28;20021;-73
2022/07/05 01:02:25;;;;;;;5.60;5.10;;;17.50;99.90;;;;;;5054075;28;20079;-73
2022/07/05 01:04:51;;;;;;;7.97;4.93;;;17.50;99.90;;;;;;5052801;28;20079;-73
2022/07/05 01:07:23;;;;;;;5.20;4.72;;;17.50;99.90;;;;;;5053903;28;20028;-73
2022/07/05 01:09:49;;;;;;;4.95;4.55;;;17.50;99.90;;;;;;5053730;28;20052;-73
2022/07/05 01:12:16;;;;;;;5.07;4.68;;;17.40;99.90;;;;;;5053860;28;20429;-73
2022/07/05 01:14:42;;;;;;;5.50;5.00;;;17.40;99.90;;;;;;5053415;28;20041;-73
2022/07/05 01:17:08;;;;;;;5.45;4.95;;;17.40;99.90;;;;;;5053785;28;20038;-73
2022/07/05 01:19:33;;;;;;;4.85;4.45;;;17.40;99.90;;;;;;5052232;28;20025;-73
2022/07/05 01:22:07;;;;;;;5.90;5.18;;;17.30;99.90;;;;;;5053962;28;20021;-73
2022/07/05 01:24:33;;;;;;;5.25;3.97;;;17.40;99.90;;;;;;5053899;28;20120;-73
2022/07/05 01:26:59;;;;;;;4.70;4.25;;;17.40;99.90;;;;;;5052364;28;20171;-73
2022/07/05 01:29:25;;;;;;;4.85;4.40;;;17.40;99.90;;;;;;5053750;28;20174;-73
2022/07/05 01:31:52;;;;;;;6.28;4.40;;;17.40;99.90;;;;;;5053487;28;20483;-73
2022/07/05 01:34:17;;;;;;;4.45;3.88;;;17.40;99.90;;;;;;5053206;28;20477;-73
2022/07/05 01:36:43;;;;;;;4.90;4.40;;;17.40;99.90;;;;;;5053596;28;20029;-73
2022/07/05 01:39:09;;;;;;;4.28;3.90;;;17.30;99.90;;;;;;5053754;28;20446;-73
2022/07/05 01:41:35;;;;;;;4.30;3.90;;;17.30;99.90;;;;;;5053692;28;20422;-73
2022/07/05 01:44:01;;;;;;;4.65;4.30;;;17.30;99.90;;;;;;5052260;28;20029;-73
2022/07/05 01:46:32;;;;;;;4.53;4.13;;;17.30;99.90;;;;;;5053233;28;20488;-72
2022/07/05 01:49:03;;;;;;;5.47;3.92;;;17.30;99.90;;;;;;5052435;28;20054;-73
2022/07/05 01:51:37;;;;;;;4.60;4.20;;;17.30;99.90;;;;;;5051957;28;20064;-73
2022/07/05 01:54:03;;;;;;;4.38;3.97;;;17.30;99.90;;;;;;5052421;28;20049;-73
2022/07/05 01:56:29;;;;;;;4.28;3.97;;;17.30;99.90;;;;;;5053097;28;20071;-73
2022/07/05 01:58:56;;;;;;;5.07;4.10;;;17.30;99.90;;;;;;5052155;28;20036;-73
2022/07/05 02:01:40;;;;;;;5.20;4.63;;;17.30;99.90;;;;;;5053075;28;20055;-73
2022/07/05 02:04:08;;;;;;;4.00;3.70;;;17.30;99.90;;;;;;5053438;28;20029;-73
2022/07/05 02:06:33;;;;;;;4.30;3.90;;;17.30;99.90;;;;;;5053293;28;20033;-73
2022/07/05 02:09:01;;;;;;;4.03;3.70;;;17.30;99.90;;;;;;5052029;28;20132;-73
2022/07/05 02:11:27;;;;;;;4.55;4.15;;;17.30;99.90;;;;;;5053288;28;20083;-73
2022/07/05 02:13:52;;;;;;;3.83;3.53;;;17.30;99.90;;;;;;5053480;28;20029;-73
2022/07/05 02:16:22;;;;;;;4.53;4.13;;;17.40;99.90;;;;;;5053201;28;20036;-73
2022/07/05 02:18:47;;;;;;;3.53;3.30;;;17.40;99.90;;;;;;5052186;28;20029;-72
2022/07/05 02:21:13;;;;;;;4.15;3.45;;;17.40;99.90;;;;;;5053723;28;20032;-72
2022/07/05 02:23:39;;;;;;;3.65;3.35;;;17.50;99.90;;;;;;5055725;28;20025;-73
2022/07/05 02:26:04;;;;;;;4.45;3.47;;;17.50;99.90;;;;;;5057189;28;20054;-73
2022/07/05 02:28:30;;;;;;;4.40;3.75;;;17.40;99.90;;;;;;5056876;28;20472;-73
2022/07/05 02:30:56;;;;;;;3.78;3.42;;;17.40;99.90;;;;;;5056753;28;20530;-72
2022/07/05 02:33:21;;;;;;;4.32;3.17;;;17.40;99.90;;;;;;5056670;28;20519;-73
2022/07/05 02:35:47;;;;;;;3.95;3.55;;;17.40;99.90;;;;;;5056356;28;20071;-73
2022/07/05 02:38:12;;;;;;;3.10;2.90;;;17.50;99.90;;;;;;5056457;28;20487;-73
2022/07/05 02:40:38;;;;;;;7.78;3.53;;;17.50;99.90;;;;;;5056794;28;20436;-73
2022/07/05 02:43:04;;;;;;;7.07;3.17;;;17.50;99.90;;;;;;5056951;28;20078;-72
2022/07/05 02:45:29;;;;;;;3.40;3.05;;;17.50;99.90;;;;;;5056794;28;20378;-73
2022/07/05 02:47:56;;;;;;;4.47;3.38;;;17.50;99.90;;;;;;5055175;28;20115;-72
2022/07/05 02:50:22;;;;;;;6.25;3.20;;;17.50;99.90;;;;;;5056167;28;20029;-73
2022/07/05 02:52:48;;;;;;;6.78;3.22;;;17.50;99.90;;;;;;5056365;28;20029;-73
2022/07/05 02:55:13;;;;;;;3.35;3.05;;;17.50;99.90;;;;;;5056268;28;20041;-73
2022/07/05 02:57:39;;;;;;;7.22;3.38;;;17.50;99.90;;;;;;5054753;28;20118;-73
2022/07/05 03:00:06;;;;;;;3.55;3.25;;;17.50;99.90;;;;;;5056226;28;20025;-73
2022/07/05 03:02:31;;;;;;;4.68;3.15;;;17.50;99.90;;;;;;5055129;28;20171;-73
2022/07/05 03:04:57;;;;;;;3.20;2.90;;;17.60;99.90;;;;;;5054863;28;20377;-73
2022/07/05 03:07:22;;;;;;;5.25;3.35;;;17.60;99.90;;;;;;5056008;28;20100;-73
2022/07/05 03:09:48;;;;;;;3.60;3.30;;;17.70;99.90;;;;;;5054752;28;20063;-71
2022/07/05 03:12:14;;;;;;;4.78;3.05;;;17.80;99.90;;;;;;5055985;28;20064;-69
2022/07/05 03:14:39;;;;;;;3.45;3.15;;;17.80;99.90;;;;;;5055831;28;20036;-69
2022/07/05 03:17:05;;;;;;;3.70;3.20;;;17.90;99.90;;;;;;5056164;28;20025;-69
2022/07/05 03:19:30;;;;;;;5.97;3.30;;;18.00;99.90;;;;;;5054554;28;20074;-70
2022/07/05 03:21:56;;;;;;;6.05;3.88;;;18.10;99.90;;;;;;5054808;28;20025;-69
2022/07/05 03:24:22;;;;;;;6.28;3.00;;;18.20;99.90;;;;;;5055835;28;20112;-69
2022/07/05 03:26:47;;;;;;;3.97;3.67;;;18.30;99.90;;;;;;5055802;28;20025;-70
2022/07/05 03:29:13;;;;;;;3.80;3.50;;;18.40;99.90;;;;;;5055992;28;20456;-69
2022/07/05 03:31:38;;;;;;;4.13;3.83;;;18.40;99.90;;;;;;5054669;28;20078;-70
2022/07/05 03:34:04;;;;;;;4.47;3.38;;;18.50;99.90;;;;;;5055150;28;20322;-69
2022/07/05 03:36:30;;;;;;;5.53;4.22;;;18.50;99.90;;;;;;5054166;28;20036;-69
2022/07/05 03:38:56;;;;;;;5.78;3.75;;;18.60;99.90;;;;;;5055201;28;20037;-69
2022/07/05 03:41:21;;;;;;;4.93;3.95;;;18.60;99.90;;;;;;5055435;28;20197;-69
2022/07/05 03:43:47;;;;;;;3.80;3.40;;;18.70;99.90;;;;;;5054245;28;20114;-69
2022/07/05 03:46:13;;;;;;;4.05;3.47;;;18.80;99.90;;;;;;5055767;28;20055;-69
2022/07/05 03:48:38;;;;;;;3.67;3.25;;;18.80;99.90;;;;;;5054074;28;20029;-70
2022/07/05 03:51:04;;;;;;;3.83;2.88;;;18.90;99.90;;;;;;5054018;28;20075;-69
2022/07/05 03:53:29;;;;;;;3.03;2.63;;;19.00;99.90;;;;;;5055203;28;20048;-70
2022/07/05 03:55:55;;;;;;;3.95;3.30;;;19.10;99.90;;;;;;5053780;28;20425;-69
2022/07/05 03:58:21;;;;;;;2.58;2.20;;;19.10;99.90;;;;;;5054901;28;20080;-69
2022/07/05 04:00:46;;;;;;;2.70;2.50;;;19.10;99.90;;;;;;5055072;28;20025;-69
2022/07/05 04:03:12;;;;;;;2.45;2.20;;;19.10;99.90;;;;;;5055004;28;20192;-69
2022/07/05 04:05:39;;;;;;;4.05;2.25;;;19.10;99.90;;;;;;5054898;28;20033;-69
2022/07/05 04:08:04;;;;;;;2.33;2.20;;;19.10;99.90;;;;;;5053780;28;20031;-69
2022/07/05 04:10:30;;;;;;;2.88;2.30;;;19.20;99.90;;;;;;5055155;28;20104;-70
2022/07/05 04:12:56;;;;;;;1.98;1.88;;;19.20;99.90;;;;;;5053587;28;20465;-70
2022/07/05 04:15:22;;;;;;;3.13;1.88;;;19.10;99.90;;;;;;5054651;28;20093;-70
2022/07/05 04:17:55;;;;;;;2.25;1.63;;;19.10;99.90;;;;;;5055057;28;20021;-69
2022/07/05 04:20:22;;;;;;;2.40;1.80;;;19.20;99.90;;;;;;5053786;28;20025;-69
2022/07/05 04:22:48;;;;;;;1.90;1.70;;;19.20;99.90;;;;;;5054477;28;20473;-69
2022/07/05 04:25:18;;;;;;;2.53;1.88;;;19.30;99.90;;;;;;5054566;28;20025;-70
2022/07/05 04:27:44;;;;;;;;;;;19.30;99.90;;;;;;5054862;28;20528;-70
2022/07/05 04:30:10;;;;;;;2.35;1.58;;;19.30;99.90;;;;;;5054512;28;20261;-69
2022/07/05 04:32:36;;;;;;;2.47;1.65;;;19.30;99.90;;;;;;5054752;28;20029;-70
2022/07/05 04:35:02;;;;;;;1.77;1.67;;;19.30;99.90;;;;;;5053003;28;20037;-69
2022/07/05 04:37:27;;;;;;;3.28;1.33;;;19.30;99.90;;;;;;5052874;28;20029;-69
2022/07/05 04:39:53;;;;;;;3.05;1.50;;;19.40;99.90;;;;;;5054072;28;20146;-69
2022/07/05 04:42:19;;;;;;;1.52;1.42;;;19.40;99.90;;;;;;5054269;28;20025;-65
2022/07/05 04:44:44;;;;;;;1.73;1.40;;;19.40;99.90;;;;;;5054098;28;20403;-64
2022/07/05 04:47:10;;;;;;;1.23;1.13;;;19.60;99.90;;;;;;5053915;28;20075;-64
2022/07/05 04:49:36;;;;;;;3.03;1.35;;;19.70;99.90;;;;;;5054169;28;20029;-65
2022/07/05 04:52:01;;;;;;;1.10;1.05;;;19.70;99.90;;;;;;5054371;28;20037;-65
2022/07/05 04:54:27;;;;;;;3.20;1.23;;;19.70;99.90;;;;;;5054152;28;20352;-65
2022/07/05 04:56:52;;;;;;;1.67;1.10;;;19.80;99.90;;;;;;5053497;28;20095;-65
2022/07/05 04:59:18;;;;;;;7.65;0.90;;;19.90;99.90;;;;;;5054547;28;20078;-65
2022/07/05 05:01:44;;;;;;;2.63;0.98;;;19.80;99.90;;;;;;5053965;28;20536;-65
2022/07/05 05:04:09;;;;;;;0.90;0.90;;;19.80;99.90;;;;;;5054345;28;20361;-66
2022/07/05 05:06:35;;;;;;;3.25;1.30;;;19.80;99.90;;;;;;5053904;28;20029;-65
2022/07/05 05:09:00;;;;;;;1.13;1.02;;;19.90;99.90;;;;;;5053844;28;20029;-65
2022/07/05 05:11:26;;;;;;;3.10;1.02;;;19.90;99.90;;;;;;5053848;28;20457;-65
2022/07/05 05:13:52;;;;;;;2.78;1.60;;;19.90;99.90;;;;;;5053821;28;20036;-65
2022/07/05 05:16:17;;;;;;;1.75;1.20;;;19.80;99.90;;;;;;5053244;28;20041;-65
2022/07/05 05:18:43;;;;;;;0.80;0.80;;;19.80;99.90;;;;;;5053507;28;20044;-65
2022/07/05 05:21:09;;;;;;;1.27;0.90;;;19.80;99.90;;;;;;5053590;28;20021;-65
2022/07/05 05:23:34;;;;;;;3.83;0.90;;;19.80;99.90;;;;;;5053681;28;20025;-65
2022/07/05 05:26:00;;;;;;;1.48;1.30;;;19.90;99.90;;;;;;5053660;28;20083;-65
2022/07/05 05:28:25;;;;;;;1.30;1.20;;;19.90;99.90;;;;;;5053554;28;20113;-65
2022/07/05 05:30:51;;;;;;;2.25;1.20;;;19.90;99.90;;;;;;5053377;28;20132;-65
2022/07/05 05:33:17;;;;;;;1.30;1.20;;;20.00;99.90;;;;;;5053373;28;20025;-65
2022/07/05 05:35:42;;;;;;;3.10;1.33;;;20.00;99.90;;;;;;5052225;28;20037;-65
2022/07/05 05:38:08;;;;;;;1.42;1.10;;;19.90;99.90;;;;;;5053557;28;20025;-65
2022/07/05 05:40:33;;;;;;;1.27;1.17;;;19.90;99.90;;;;;;5053779;28;20389;-65
2022/07/05 05:43:00;;;;;;;3.35;1.42;;;19.90;99.90;;;;;;5053812;28;20027;-70
2022/07/05 05:45:25;;;;;;;2.70;1.30;;;19.90;99.90;;;;;;5053865;28;20523;-71
2022/07/05 05:47:52;;;;;;;2.92;1.30;;;19.90;99.90;;;;;;5053490;28;20025;-71
2022/07/05 05:50:26;;;;;;;1.33;1.23;;;19.80;99.90;;;;;;5053553;28;20021;-71
2022/07/05 05:52:52;;;;;;;9.02;1.45;;;19.70;99.90;;;;;;5052125;28;20024;-71
2022/07/05 05:55:19;;;;;;;3.10;1.20;;;19.70;99.90;;;;;;5053535;28;20033;-71
2022/07/05 05:57:45;;;;;;;3.40;1.48;;;19.80;99.90;;;;;;5057554;28;20170;-71
2022/07/05 06:00:11;;;;;;;1.38;1.30;;;19.80;99.90;;;;;;5057330;28;20108;-71
2022/07/05 06:02:37;;;;;;;4.40;1.13;;;19.80;99.90;;;;;;5056039;28;20383;-71
2022/07/05 06:05:03;;;;;;;1.95;1.52;;;19.70;99.90;;;;;;5056052;28;20029;-71
2022/07/05 06:07:28;;;;;;;3.88;1.40;;;19.70;99.90;;;;;;5057185;28;20021;-71
2022/07/05 06:09:54;;;;;;;1.10;1.00;;;19.70;99.90;;;;;;5057489;28;20071;-71
2022/07/05 06:12:19;;;;;;;3.30;1.30;;;19.70;99.90;;;;;;5057063;28;20068;-70
2022/07/05 06:14:45;;;;;;;1.50;1.00;;;19.80;99.90;;;;;;5056836;28;20033;-71
2022/07/05 06:17:11;;;;;;;1.33;1.25;;;19.80;99.90;;;;;;5055981;28;20024;-71
2022/07/05 06:19:36;;;;;;;2.15;1.20;;;19.90;99.90;;;;;;5056961;28;20033;-71
2022/07/05 06:22:02;;;;;;;2.17;1.23;;;19.90;99.90;;;;;;5056760;28;20029;-71
2022/07/05 06:24:28;;;;;;;1.88;1.13;;;20.00;99.90;;;;;;5056813;28;20052;-71
2022/07/05 06:26:53;;;;;;;2.65;0.85;;;20.00;99.90;;;;;;5056997;28;20025;-71
2022/07/05 06:29:19;;;;;;;3.15;1.33;;;19.90;99.90;;;;;;5056782;28;20021;-71
2022/07/05 06:31:44;;;;;;;1.33;0.82;;;19.90;99.90;;;;;;5056276;28;20025;-71
2022/07/05 06:34:10;;;;;;;2.03;0.90;;;19.90;99.90;;;;;;5056954;28;20115;-71
2022/07/05 06:36:36;;;;;;;2.58;1.10;;;19.90;99.90;;;;;;5056579;28;20384;-71
2022/07/05 06:39:01;;;;;;;0.70;0.70;;;19.90;99.90;;;;;;5056563;28;20036;-71
2022/07/05 06:41:27;;;;;;;0.82;0.77;;;19.90;99.90;;;;;;5056529;28;20025;-71
2022/07/05 06:43:52;;;;;;;2.90;0.95;;;20.00;99.90;;;;;;5056202;28;20021;-71
2022/07/05 06:46:18;;;;;;;0.45;0.45;;;20.00;99.90;;;;;;5056796;28;20091;-71
2022/07/05 06:48:43;;;;;;;1.75;0.60;;;20.00;99.90;;;;;;5056366;28;20113;-71
2022/07/05 06:51:10;;;;;;;1.02;0.55;;;20.00;99.90;;;;;;5056249;28;20476;-71
2022/07/05 06:53:36;;;;;;;5.25;0.68;;;20.00;99.90;;;;;;5056293;28;20063;-71
2022/07/05 06:56:01;;;;;;;0.60;0.60;;;20.10;99.90;;;;;;5055895;28;20234;-71
2022/07/05 06:58:27;;;;;;;0.60;0.60;;;20.10;99.90;;;;;;5056034;28;20481;-71
2022/07/05 07:00:53;;;;;;;0.60;0.60;;;20.10;99.90;;;;;;5056172;28;20064;-71
2022/07/05 07:03:19;;;;;;;0.80;0.50;;;20.10;99.90;;;;;;5056389;28;20029;-72
2022/07/05 07:05:44;;;;;;;1.05;0.70;;;20.10;99.90;;;;;;5056189;28;20062;-72
2022/07/05 07:10:54;;;;;;;1.55;0.70;;;20.30;99.90;;;;;;5056041;28;20098;-72
2022/07/05 07:13:19;;;;;;;4.35;1.73;;;20.30;99.90;;;;;;5056331;28;20461;-71
2022/07/05 07:15:47;;;;;;;0.60;0.60;;;20.40;99.90;;;;;;5055521;28;20040;-71
2022/07/05 07:18:13;;;;;;;0.60;0.60;;;20.40;99.90;;;;;;5055844;28;20078;-71
2022/07/05 07:20:39;;;;;;;0.40;0.40;;;20.40;99.90;;;;;;5056092;28;20470;-71
2022/07/05 07:23:04;;;;;;;1.23;0.63;;;20.50;99.90;;;;;;5054530;28;20066;-71
2022/07/05 07:25:30;;;;;;;2.38;0.70;;;20.60;99.90;;;;;;5053990;28;20369;-71
2022/07/05 07:27:56;;;;;;;1.23;0.40;;;20.60;99.90;;;;;;5054318;28;20059;-72
2022/07/05 07:30:24;;;;;;;1.00;0.40;;;20.70;99.90;;;;;;5055760;28;20079;-71
2022/07/05 07:32:50;;;;;;;0.88;0.47;;;20.80;99.90;;;;;;5055583;28;20032;-71
2022/07/05 07:35:16;;;;;;;0.73;0.38;;;20.90;99.90;;;;;;5055079;28;20405;-71
2022/07/05 07:37:41;;;;;;;1.27;0.40;;;21.00;99.90;;;;;;5055191;28;20029;-71
2022/07/05 07:40:08;;;;;;;1.90;0.30;;;21.10;99.90;;;;;;5055520;28;20031;-71
2022/07/05 07:42:33;;;;;;;3.88;0.60;;;21.10;99.90;;;;;;5055182;28;20059;-71
2022/07/05 07:45:03;;;;;;;1.63;0.73;;;21.10;99.90;;;;;;5055541;28;20064;-71
2022/07/05 07:47:32;;;;;;;0.88;0.30;;;21.00;99.90;;;;;;5055623;28;20028;-72
2022/07/05 07:49:59;;;;;;;0.73;0.10;;;21.10;99.90;;;;;;5055264;28;20021;-71
2022/07/05 07:52:25;;;;;;;1.27;0.10;;;21.10;99.90;;;;;;5055450;28;20035;-71
2022/07/05 07:54:50;;;;;;;1.15;0.30;;;21.10;99.90;;;;;;5055115;28;20108;-72
2022/07/05 07:57:16;;;;;;;2.03;0.20;;;21.10;99.90;;;;;;5054824;28;20057;-72
2022/07/05 07:59:42;;;;;;;1.13;0.10;;;20.90;99.90;;;;;;5054805;28;20449;-71
2022/07/05 08:02:07;;;;;;;1.85;0.13;;;20.90;99.90;;;;;;5053652;28;20413;-71
2022/07/05 08:04:33;;;;;;;1.38;0.20;;;20.80;99.90;;;;;;5054917;28;20025;-72
2022/07/05 08:06:59;;;;;;;1.30;0.20;;;20.70;99.90;;;;;;5054950;28;20028;-72
2022/07/05 08:09:24;;;;;;;4.95;0.25;;;20.60;99.90;;;;;;5054824;28;20457;-72
2022/07/05 08:11:50;;;;;;;0.43;0.20;;;20.50;99.90;;;;;;5054970;28;20029;-72
2022/07/05 08:14:18;;;;;;;0.93;0.17;;;20.50;99.90;;;;;;5054589;28;20025;-71
2022/07/05 08:16:46;;;;;;;3.63;0.20;;;20.50;99.90;;;;;;5054706;28;20040;-71
2022/07/05 08:21:56;;;;;;;0.10;0.10;;;20.40;99.90;;;;;;5054368;28;20040;-71
2022/07/05 08:24:22;;;;;;;0.30;0.10;;;20.30;99.90;;;;;;5053356;28;20025;-71
2022/07/05 08:26:47;;;;;;;1.00;0.35;;;20.30;99.90;;;;;;5053528;28;20476;-71
2022/07/05 08:29:14;;;;;;;0.20;0.20;;;20.20;99.90;;;;;;5054422;28;20025;-71
2022/07/05 08:31:46;;;;;;;0.43;0.28;;;20.00;99.90;;;;;;5052723;28;20029;-71
2022/07/05 08:34:12;;;;;;;0.75;0.55;;;19.90;99.90;;;;;;5054318;28;20060;-72
2022/07/05 08:36:41;;;;;;;0.40;0.35;;;19.80;99.90;;;;;;5054304;28;20108;-71
2022/07/05 08:39:08;;;;;;;0.28;0.28;;;19.70;99.90;;;;;;5053349;28;20031;-71
2022/07/05 08:41:37;;;;;;;1.13;1.02;;;19.70;99.90;;;;;;5052909;28;20033;-71
2022/07/05 08:44:04;;;;;;;2.50;0.60;;;19.70;99.90;;;;;;5054231;28;20504;-71
2022/07/05 08:46:32;;;;;;;0.50;0.50;;;19.70;99.90;;;;;;5054175;28;20064;-71
2022/07/05 08:49:04;;;;;;;0.70;0.60;;;19.70;99.90;;;;;;5053988;28;20428;-72
2022/07/05 08:51:33;;;;;;;0.90;0.90;;;19.70;99.90;;;;;;5053253;28;20037;-72
2022/07/05 08:54:00;;;;;;;0.85;0.73;;;19.70;99.90;;;;;;5052965;28;20079;-72
2022/07/05 08:56:25;;;;;;;1.83;0.77;;;19.70;99.90;;;;;;5052546;28;20036;-72
2022/07/05 08:58:51;;;;;;;0.65;0.63;;;19.70;99.90;;;;;;5054014;28;20021;-73
2022/07/05 09:01:17;;;;;;;0.93;0.85;;;19.50;99.90;;;;;;5053677;28;20074;-72
2022/07/05 09:03:45;;;;;;;1.02;1.02;;;19.40;99.90;;;;;;5052878;28;20036;-73
2022/07/05 09:06:13;;;;;;;0.52;0.52;;;19.20;99.90;;;;;;5053891;28;20071;-73
2022/07/05 09:08:40;;;;;;;1.45;1.35;;;19.10;99.90;;;;;;5053169;28;20086;-73
2022/07/05 09:11:11;;;;;;;0.70;0.70;;;19.00;99.90;;;;;;5054089;28;20454;-73
2022/07/05 09:13:38;;;;;;;1.20;1.10;;;18.90;99.90;;;;;;5052485;28;20048;-73
2022/07/05 09:16:05;;;;;;;3.03;1.38;;;18.90;99.90;;;;;;5053690;28;20029;-73
2022/07/05 09:18:44;;;;;;;1.05;1.05;;;18.80;99.90;;;;;;5052463;28;20029;-73
2022/07/05 09:21:22;;;;;;;1.55;1.45;;;18.80;99.90;;;;;;5053734;28;20032;-73
2022/07/05 09:23:59;;;;;;;1.63;1.23;;;18.70;99.90;;;;;;5052766;28;20373;-73
2022/07/05 09:26:40;;;;;;;1.50;1.40;;;18.70;99.90;;;;;;5053599;28;20029;-72
2022/07/05 09:29:16;;;;;;;1.35;1.33;;;18.80;99.90;;;;;;5052948;28;20059;-73
2022/07/05 09:31:52;;;;;;;1.42;1.30;;;18.80;99.90;;;;;;5052722;28;20538;-74
2022/07/05 09:34:19;;;;;;;1.52;1.20;;;18.70;99.90;;;;;;5053732;28;20080;-73
2022/07/05 09:36:48;;;;;;;1.50;1.40;;;18.70;99.90;;;;;;5053493;28;20025;-73
2022/07/05 09:39:14;;;;;;;2.40;1.45;;;18.70;99.90;;;;;;5053762;28;20036;-73
2022/07/05 09:41:39;;;;;;;2.10;1.70;;;18.70;99.90;;;;;;5053302;28;20026;-73
2022/07/05 09:44:05;;;;;;;2.70;1.67;;;18.70;99.90;;;;;;5052183;28;20388;-73
2022/07/05 09:46:31;;;;;;;1.60;1.38;;;18.70;99.90;;;;;;5053460;28;20087;-73
2022/07/05 09:48:57;;;;;;;1.90;1.38;;;18.70;99.90;;;;;;5052315;28;20028;-74
2022/07/05 09:51:23;;;;;;;3.33;1.80;;;18.80;99.90;;;;;;5052230;28;20132;-75
2022/07/05 09:53:52;;;;;;;4.10;1.75;;;18.80;99.90;;;;;;5053874;28;20090;-79
2022/07/05 09:56:18;;;;;;;12.10;2.67;;;18.70;99.90;;;;;;5051855;28;20032;-80
2022/07/05 09:58:44;;;;;;;2.55;2.30;;;18.60;99.90;;;;;;5053642;28;20102;-86
2022/07/05 10:01:29;;;;;;;8.18;2.20;;;18.40;99.90;;;;;;5052716;28;20048;-84
2022/07/05 10:03:58;;;;;;;5.97;2.95;;;18.40;99.90;;;;;;5053560;28;20017;-82
2022/07/05 10:06:25;;;;;;;4.15;2.88;;;18.40;99.90;;;;;;5053591;28;20418;-78
2022/07/05 10:08:52;;;;;;;3.05;2.40;;;18.30;99.90;;;;;;5053463;28;20031;-79
2022/07/05 10:11:19;;;;;;;3.90;3.20;;;18.20;99.90;;;;;;5052166;28;20025;-78
2022/07/05 10:13:50;;;;;;;3.17;2.88;;;18.20;99.90;;;;;;5053292;28;20025;-79
2022/07/05 10:16:21;;;;;;;4.25;3.33;;;18.10;99.90;;;;;;5053127;28;20091;-78
2022/07/05 10:18:51;;;;;;;3.75;3.10;;;18.10;99.90;;;;;;5052940;28;20027;-79
2022/07/05 10:21:18;;;;;;;4.30;3.83;;;18.10;99.90;;;;;;5051885;28;20032;-79
2022/07/05 10:23:51;;;;;;;5.43;3.50;;;18.00;99.90;;;;;;5053475;28;20036;-79
2022/07/05 10:26:17;;;;;;;3.15;2.85;;;17.90;99.90;;;;;;5053400;28;20033;-80
2022/07/05 10:28:49;;;;;;;4.80;3.88;;;17.90;99.90;;;;;;5052308;28;20397;-81
2022/07/05 10:31:15;;;;;;;5.82;4.00;;;17.90;99.90;;;;;;5051975;28;20032;-79
2022/07/05 10:33:42;;;;;;;5.88;4.68;;;17.90;99.90;;;;;;5052896;28;20056;-78
2022/07/05 10:36:13;;;;;;;4.85;4.53;;;18.00;99.90;;;;;;5051373;28;20033;-78
2022/07/05 10:38:42;;;;;;;4.60;4.20;;;18.10;99.90;;;;;;5053327;28;20025;-78
2022/07/05 10:41:11;;;;;;;7.20;5.43;;;18.10;99.90;;;;;;5053224;28;20040;-77
2022/07/05 10:43:37;;;;;;;;;;;18.10;99.90;;;;;;5055930;28;20029;-76
2022/07/05 10:46:06;;;;;;;4.93;4.53;;;18.20;99.90;;;;;;5055194;28;19931;-76
2022/07/05 10:48:32;;;;;;;6.03;5.07;;;18.30;99.90;;;;;;5056833;28;20469;-76
2022/07/05 10:51:10;;;;;;;5.70;4.80;;;18.30;99.90;;;;;;5055126;28;20488;-76
2022/07/05 10:53:35;;;;;;;5.32;4.80;;;18.30;99.90;;;;;;5056453;28;20025;-76
2022/07/05 10:56:03;;;;;;;3.72;3.42;;;18.40;99.90;;;;;;5056331;28;20040;-76
2022/07/05 10:58:33;;;;;;;4.23;3.63;;;18.20;99.90;;;;;;5055950;28;20055;-76
2022/07/05 11:01:20;;;;;;;4.25;3.85;;;18.20;99.90;;;;;;5056208;28;20466;-76
2022/07/05 11:04:02;;;;;;;4.95;4.50;;;18.30;99.90;;;;;;5056084;28;20025;-76
2022/07/05 11:06:29;;;;;;;5.65;5.15;;;18.30;99.90;;;;;;5056316;28;20163;-76
2022/07/05 11:09:05;;;;;;;5.50;5.00;;;18.30;99.90;;;;;;5056259;28;20159;-76
2022/07/05 11:11:35;;;;;;;6.00;5.18;;;18.40;99.90;;;;;;5054834;28;20457;-76
2022/07/05 11:14:03;;;;;;;5.47;4.97;;;18.50;99.90;;;;;;5054782;28;20381;-76
2022/07/05 11:16:31;;;;;;;5.93;5.43;;;18.50;99.90;;;;;;5056014;28;20385;-75
2022/07/05 11:19:10;;;;;;;6.23;5.73;;;18.60;99.90;;;;;;5054640;28;20107;-76
2022/07/05 11:21:37;;;;;;;;;;;18.70;99.90;;;;;;5056559;28;20608;-75
2022/07/05 11:24:28;;;;;;;6.90;6.30;;;18.80;99.90;;;;;;5056171;28;19916;-76
2022/07/05 11:26:58;;;;;;;6.20;5.70;;;18.80;99.90;;;;;;5055770;28;20090;-75
2022/07/05 11:29:45;;;;;;;7.13;5.22;;;18.90;99.90;;;;;;5055432;28;20032;-75
2022/07/05 11:32:13;;;;;;;7.20;5.53;;;18.90;99.90;;;;;;5054405;28;20060;-76
2022/07/05 11:34:40;;;;;;;6.93;6.43;;;18.80;99.90;;;;;;5055754;28;20021;-75
2022/07/05 11:37:34;;;;;;;6.45;5.70;;;18.80;99.90;;;;;;5054653;28;20025;-75
2022/07/05 11:40:11;;;;;;;11.32;6.68;;;18.80;99.90;;;;;;5055615;28;20492;-75
2022/07/05 11:42:39;;;;;;;6.85;5.97;;;18.70;99.90;;;;;;5055590;28;20029;-75
2022/07/05 11:45:08;;;;;;;7.28;6.57;;;18.70;99.90;;;;;;5055473;28;20051;-75
2022/07/05 11:47:35;;;;;;;11.38;7.82;;;18.70;99.90;;;;;;5055512;28;20461;-75
2022/07/05 11:53:39;;;;;;;9.13;8.10;;;18.80;99.90;;;;;;5013041;28;20033;-75
2022/07/05 11:56:05;;;;;;;8.50;7.65;;;18.80;99.90;;;;;;5055423;28;20487;-75
2022/07/05 11:58:32;;;;;;;9.50;8.48;;;18.80;99.90;;;;;;5053521;28;20053;-75
2022/07/05 12:00:59;;;;;;;9.90;8.45;;;18.90;99.90;;;;;;5055238;28;20025;-75
2022/07/05 12:03:25;;;;;;;7.88;7.28;;;19.10;99.90;;;;;;5055153;28;20029;-76
2022/07/05 12:06:18;;;;;;;9.20;8.40;;;19.10;99.90;;;;;;5055110;28;20021;-76
2022/07/05 12:09:00;;;;;;;8.93;8.13;;;19.20;99.90;;;;;;5054683;28;20063;-76
2022/07/05 12:18:05;;;;;;;11.65;8.52;;;19.30;99.90;;;;;;5054773;28;20036;-77
2022/07/05 12:20:33;;;;;;;8.95;8.15;;;19.30;99.90;;;;;;5055252;28;20462;-76
2022/07/05 12:23:00;;;;;;;8.45;7.70;;;19.30;99.90;;;;;;5054720;28;20032;-77
2022/07/05 12:25:27;;;;;;;7.72;7.03;;;19.20;99.90;;;;;;5054948;28;20511;-77
2022/07/05 12:27:54;;;;;;;5.90;5.40;;;19.20;99.90;;;;;;5054595;28;20021;-78
2022/07/05 12:30:21;;;;;;;8.57;6.25;;;19.00;99.90;;;;;;5053265;28;20032;-76
2022/07/05 12:33:00;;;;;;;7.97;6.15;;;18.90;99.90;;;;;;5054481;28;20039;-76
2022/07/05 12:35:27;;;;;;;8.70;7.90;;;18.80;99.90;;;;;;5053615;28;20028;-77
2022/07/05 12:37:53;;;;;;;9.45;7.78;;;18.80;99.90;;;;;;5053394;28;20533;-76
2022/07/05 12:40:22;;;;;;;21.42;7.32;;;18.90;99.90;;;;;;5054454;28;20029;-76
2022/07/05 12:42:59;;;;;;;;;;;19.00;99.90;;;;;;5054746;28;20029;-76
2022/07/05 12:45:24;;;;;;;8.10;7.40;;;19.30;99.90;;;;;;5054623;28;19905;-76
2022/07/05 12:48:02;;;;;;;5.85;5.35;;;19.90;99.90;;;;;;5052831;28;20032;-75
2022/07/05 12:50:30;;;;;;;4.22;3.75;;;20.30;99.90;;;;;;5054170;28;20100;-75
2022/07/05 12:58:31;;;;;;;3.63;3.38;;;21.40;99.90;;;;;;5053758;28;20102;-75
2022/07/05 13:00:56;;;;;;;5.75;4.07;;;21.30;99.90;;;;;;5052252;28;20116;-75
2022/07/05 13:03:22;;;;;;;4.03;3.15;;;21.10;99.90;;;;;;5053717;28;20029;-61
2022/07/05 13:06:02;;;;;;;3.47;3.20;;;21.00;99.90;;;;;;5053063;28;20033;-61
2022/07/05 13:08:28;;;;;;;4.05;3.65;;;21.00;99.90;;;;;;5054040;28;20036;-58
2022/07/05 13:10:54;;;;;;;3.80;3.50;;;21.00;99.90;;;;;;5053735;28;20033;-60